Wedron, Illinois
Current Conditions -  °F | °C
As of 8:55 AM on Sunday 23 Nov 2014 (Local Time) from KC09 Reporting Station
Overcast Overcast  
Wind Chill: 44°   Ceiling: 9000
Heat Index: 49°   Visibility: 10mi
Dew Point: 45°   Wind: 13mph
Humidity: 84%   Direction: 170°S
Pressure: 29.73"   Gusts: NA
Location:  41.44°N, 88.77°W
Report Text: KC09 231455Z AUTO 17011KT 10SM OVC090 10/07 A2973 RMK AO2 T00950070
Loading
Personal Weather Stations






























Interactive Weather Map New forecast layout! Learn more

10-Day Weather Forecast

Advertisements
Track Severe Weather on mobile